createdAt,value
2018-06-23T00:00:28.521Z,71.03
2018-06-23T00:01:09.079Z,71.32
2018-06-23T00:01:49.650Z,71.51
2018-06-23T00:02:30.205Z,71.61
2018-06-23T00:03:10.763Z,71.61
2018-06-23T00:03:51.327Z,71.8
2018-06-23T00:04:31.892Z,71.89
2018-06-23T00:05:12.462Z,72.18
2018-06-23T00:05:53.033Z,72.56
2018-06-23T00:06:33.593Z,72.37
2018-06-23T00:07:14.135Z,72.47
2018-06-23T00:07:54.696Z,72.85
2018-06-23T00:08:35.257Z,72.75
2018-06-23T00:09:15.798Z,72.85
2018-06-23T00:09:56.344Z,72.66
2018-06-23T00:10:36.902Z,72.75
2018-06-23T00:11:17.488Z,72.47
2018-06-23T00:11:58.022Z,72.85
2018-06-23T00:12:38.575Z,72.94
2018-06-23T00:13:19.127Z,72.66
2018-06-23T00:13:59.706Z,72.75
2018-06-23T00:14:40.263Z,72.85
2018-06-23T00:15:20.830Z,72.94
2018-06-23T00:16:01.403Z,72.75
2018-06-23T00:16:41.955Z,72.75
2018-06-23T00:17:22.526Z,72.94
2018-06-23T00:18:03.096Z,73.23
2018-06-23T00:18:43.637Z,72.37
2018-06-23T00:19:24.184Z,72.56
2018-06-23T00:20:04.728Z,72.85
2018-06-23T00:20:45.267Z,72.08
2018-06-23T00:21:25.818Z,72.28
2018-06-23T00:22:06.368Z,72.37
2018-06-23T00:22:46.930Z,72.28
2018-06-23T00:23:27.486Z,72.08
2018-06-23T00:24:08.033Z,72.66
2018-06-23T00:24:48.585Z,72.08
2018-06-23T00:25:29.149Z,72.47
2018-06-23T00:26:09.716Z,72.37
2018-06-23T00:26:50.292Z,72.18
2018-06-23T00:27:30.848Z,72.37
2018-06-23T00:28:11.405Z,72.28
2018-06-23T00:28:51.976Z,72.56
2018-06-23T00:29:32.530Z,72.56
2018-06-23T00:30:13.141Z,72.47
2018-06-23T00:30:53.643Z,72.37
2018-06-23T00:31:34.194Z,72.47
2018-06-23T00:32:14.741Z,72.66
2018-06-23T00:32:55.346Z,72.66
2018-06-23T00:33:35.903Z,71.99
2018-06-23T00:34:16.467Z,72.18
2018-06-23T00:34:57.011Z,72.66
2018-06-23T00:35:37.569Z,72.37
2018-06-23T00:36:18.135Z,72.56
2018-06-23T00:36:58.698Z,72.66
2018-06-23T00:37:39.257Z,72.94
2018-06-23T00:38:19.815Z,72.08
2018-06-23T00:39:00.403Z,72.75
2018-06-23T00:39:40.964Z,72.66
2018-06-23T00:40:21.542Z,72.37
2018-06-23T00:41:02.087Z,72.37
2018-06-23T00:41:42.639Z,72.56
2018-06-23T00:42:23.203Z,72.75
2018-06-23T00:43:03.763Z,72.75
2018-06-23T00:43:44.312Z,72.85
2018-06-23T00:44:24.885Z,72.66
2018-06-23T00:45:05.447Z,72.75
2018-06-23T00:45:46.012Z,72.75
2018-06-23T00:46:26.564Z,72.75
2018-06-23T00:47:07.116Z,72.66
2018-06-23T00:47:47.696Z,72.56
2018-06-23T00:48:28.261Z,72.66
2018-06-23T00:49:08.809Z,72.85
2018-06-23T00:49:49.369Z,72.66
2018-06-23T00:50:29.901Z,72.94
2018-06-23T00:51:10.462Z,72.85
2018-06-23T00:51:51.004Z,72.47
2018-06-23T00:52:31.566Z,72.75
2018-06-23T00:53:12.120Z,72.47
2018-06-23T00:53:52.683Z,72.85
2018-06-23T00:54:33.246Z,73.04
2018-06-23T00:55:13.810Z,72.94
2018-06-23T00:55:54.378Z,72.47
2018-06-23T00:56:35.029Z,72.94
2018-06-23T00:57:15.594Z,72.37
2018-06-23T00:57:56.143Z,72.94
2018-06-23T00:58:36.708Z,72.18
2018-06-23T00:59:17.261Z,72.47
2018-06-23T00:59:57.815Z,72.18
2018-06-23T01:00:38.356Z,72.37
2018-06-23T01:01:18.912Z,72.37
2018-06-23T01:01:59.459Z,72.28
2018-06-23T01:02:40.020Z,72.75
2018-06-23T01:03:20.585Z,72.75
2018-06-23T01:04:01.122Z,72.85
2018-06-23T01:04:41.689Z,72.85
2018-06-23T01:05:22.298Z,72.66
2018-06-23T01:06:02.846Z,72.94
2018-06-23T01:06:43.421Z,72.75
2018-06-23T01:07:23.976Z,72.66
2018-06-23T01:08:04.539Z,72.28
2018-06-23T01:08:45.092Z,72.37
2018-06-23T01:09:25.659Z,72.37
2018-06-23T01:10:06.232Z,72.37
2018-06-23T01:10:46.785Z,72.28
2018-06-23T01:11:27.352Z,72.18
2018-06-23T01:12:07.914Z,71.89
2018-06-23T01:12:48.467Z,71.89
2018-06-23T01:13:29.037Z,71.8
2018-06-23T01:14:09.598Z,71.51
2018-06-23T01:14:50.194Z,71.51
2018-06-23T01:15:30.767Z,71.51
2018-06-23T01:16:11.320Z,71.51
2018-06-23T01:16:51.890Z,71.32
2018-06-23T01:17:32.432Z,71.51
2018-06-23T01:18:12.985Z,71.42
2018-06-23T01:18:53.540Z,71.22
2018-06-23T01:19:34.101Z,71.22
2018-06-23T01:20:14.665Z,71.22
2018-06-23T01:20:55.238Z,71.42
2018-06-23T01:21:35.801Z,71.32
2018-06-23T01:22:16.392Z,71.32
2018-06-23T01:22:56.925Z,71.51
2018-06-23T01:23:37.482Z,71.03
2018-06-23T01:24:18.036Z,71.13
2018-06-23T01:24:58.593Z,70.75
2018-06-23T01:25:39.137Z,70.84
2018-06-23T01:26:19.688Z,70.75
2018-06-23T01:27:00.236Z,70.56
2018-06-23T01:27:40.797Z,70.27
2018-06-23T01:28:21.357Z,70.27
2018-06-23T01:29:01.930Z,70.07
2018-06-23T01:29:42.493Z,70.27
2018-06-23T01:30:23.064Z,69.7
2018-06-23T01:31:03.633Z,69.89
2018-06-23T01:31:44.198Z,69.5
2018-06-23T01:32:24.749Z,69.98
2018-06-23T01:33:05.382Z,69.98
2018-06-23T01:33:45.945Z,69.98
2018-06-23T01:34:26.538Z,69.98
2018-06-23T01:35:07.145Z,70.07
2018-06-23T01:35:47.695Z,69.7
2018-06-23T01:36:28.251Z,69.6
2018-06-23T01:37:08.829Z,69.7
2018-06-23T01:37:49.382Z,69.79
2018-06-23T01:38:29.961Z,69.7
2018-06-23T01:39:10.542Z,69.02
2018-06-23T01:39:51.107Z,69.12
2018-06-23T01:40:31.663Z,69.21
2018-06-23T01:41:12.214Z,69.02
2018-06-23T01:41:52.762Z,69.41
2018-06-23T01:42:33.312Z,69.02
2018-06-23T01:43:13.882Z,69.12
2018-06-23T01:43:54.490Z,68.84
2018-06-23T01:44:35.102Z,69.02
2018-06-23T01:45:15.665Z,69.12
2018-06-23T01:45:56.220Z,69.02
2018-06-23T01:46:36.781Z,68.93
2018-06-23T01:47:17.354Z,68.64
2018-06-23T01:47:57.923Z,69.12
2018-06-23T01:48:38.479Z,68.93
2018-06-23T01:49:19.043Z,68.93
2018-06-23T01:49:59.619Z,68.84
2018-06-23T01:50:40.186Z,69.12
2018-06-23T01:51:20.750Z,69.02
2018-06-23T01:52:01.319Z,68.64
2018-06-23T01:52:41.885Z,68.45
2018-06-23T01:53:22.457Z,68.74
2018-06-23T01:54:02.999Z,68.64
2018-06-23T01:54:43.549Z,68.45
2018-06-23T01:55:24.115Z,69.02
2018-06-23T01:56:04.656Z,68.93
2018-06-23T01:56:45.222Z,68.45
2018-06-23T01:57:25.750Z,68.55
2018-06-23T01:58:06.296Z,68.26
2018-06-23T01:58:46.866Z,68.64
2018-06-23T01:59:27.463Z,68.55
2018-06-23T02:00:08.034Z,68.26
2018-06-23T02:00:48.582Z,67.97
2018-06-23T02:01:29.146Z,68.64
2018-06-23T02:02:09.700Z,68.55
2018-06-23T02:02:50.252Z,68.35
2018-06-23T02:03:30.804Z,67.88
2018-06-23T02:04:11.350Z,67.78
2018-06-23T02:04:51.899Z,67.97
2018-06-23T02:05:32.460Z,68.07
2018-06-23T02:06:13.007Z,67.69
2018-06-23T02:06:53.548Z,67.4
2018-06-23T02:07:34.091Z,67.78
2018-06-23T02:08:14.640Z,67.59
2018-06-23T02:08:55.195Z,67.3
2018-06-23T02:09:35.748Z,66.83
2018-06-23T02:10:16.317Z,67.11
2018-06-23T02:10:56.871Z,67.4
2018-06-23T02:11:37.430Z,67.21
2018-06-23T02:12:17.977Z,67.02
2018-06-23T02:12:58.529Z,67.3
2018-06-23T02:13:39.084Z,67.3
2018-06-23T02:14:19.636Z,67.4
2018-06-23T02:15:00.205Z,67.4
2018-06-23T02:15:40.774Z,67.21
2018-06-23T02:16:21.322Z,67.11
2018-06-23T02:17:01.873Z,67.21
2018-06-23T02:17:42.435Z,66.83
2018-06-23T02:18:22.998Z,66.63
2018-06-23T02:19:03.555Z,66.63
2018-06-23T02:19:44.119Z,66.99
2018-06-23T02:20:24.678Z,66.6
2018-06-23T02:21:05.235Z,66.89
2018-06-23T02:21:45.799Z,67.08
2018-06-23T02:22:26.344Z,66.89
2018-06-23T02:23:06.902Z,67.27
2018-06-23T02:23:47.458Z,67.18
2018-06-23T02:24:28.001Z,67.08
2018-06-23T02:25:08.560Z,67.18
2018-06-23T02:25:49.133Z,67.27
2018-06-23T02:26:29.706Z,67.18
2018-06-23T02:27:10.307Z,67.27
2018-06-23T02:27:50.858Z,67.55
2018-06-23T02:28:31.412Z,67.36
2018-06-23T02:29:11.972Z,67.46
2018-06-23T02:29:52.542Z,67.55
2018-06-23T02:30:33.105Z,67.36
2018-06-23T02:31:13.672Z,67.65
2018-06-23T02:31:54.247Z,67.36
2018-06-23T02:32:34.812Z,67.46
2018-06-23T02:33:15.412Z,66.79
2018-06-23T02:33:55.970Z,67.18
2018-06-23T02:34:36.517Z,67.18
2018-06-23T02:35:17.079Z,67.18
2018-06-23T02:35:57.638Z,67.27
2018-06-23T02:36:38.176Z,67.36
2018-06-23T02:37:18.743Z,66.99
2018-06-23T02:37:59.289Z,66.89
2018-06-23T02:38:39.844Z,66.7
2018-06-23T02:39:20.406Z,66.89
2018-06-23T02:40:00.969Z,66.89
2018-06-23T02:40:41.527Z,66.6
2018-06-23T02:41:22.069Z,66.89
2018-06-23T02:42:02.641Z,67.18
2018-06-23T02:42:43.198Z,66.89
2018-06-23T02:43:23.767Z,66.89
2018-06-23T02:44:04.311Z,66.99
2018-06-23T02:44:44.869Z,67.08
2018-06-23T02:45:25.439Z,66.41
2018-06-23T02:46:05.985Z,66.5
2018-06-23T02:46:46.536Z,66.99
2018-06-23T02:47:27.088Z,66.99
2018-06-23T02:48:07.641Z,66.6
2018-06-23T02:48:48.207Z,66.41
2018-06-23T02:49:28.759Z,66.41
2018-06-23T02:50:09.330Z,66.41
2018-06-23T02:50:49.914Z,66.5
2018-06-23T02:51:30.479Z,66.41
2018-06-23T02:52:11.039Z,65.64
2018-06-23T02:52:51.600Z,65.93
2018-06-23T02:53:32.186Z,65.74
2018-06-23T02:54:12.749Z,66.13
2018-06-23T02:54:53.279Z,66.03
2018-06-23T02:55:33.839Z,66.03
2018-06-23T02:56:14.390Z,66.03
2018-06-23T02:56:54.989Z,66.31
2018-06-23T02:57:35.551Z,66.41
2018-06-23T02:58:16.110Z,66.41
2018-06-23T02:58:56.671Z,66.41
2018-06-23T02:59:37.232Z,65.93
2018-06-23T03:00:17.792Z,66.03
2018-06-23T03:00:58.352Z,66.13
2018-06-23T03:01:38.911Z,65.93
2018-06-23T03:02:19.478Z,65.93
2018-06-23T03:03:00.038Z,65.64
2018-06-23T03:03:40.589Z,65.64
2018-06-23T03:04:21.171Z,65.84
2018-06-23T03:05:01.746Z,65.55
2018-06-23T03:05:42.300Z,65.45
2018-06-23T03:06:22.859Z,64.98
2018-06-23T03:07:03.422Z,65.36
2018-06-23T03:07:44.033Z,65.45
2018-06-23T03:08:24.603Z,65.26
2018-06-23T03:09:05.162Z,64.98
2018-06-23T03:09:45.726Z,64.98
2018-06-23T03:10:26.280Z,65.55
2018-06-23T03:11:06.853Z,64.98
2018-06-23T03:11:47.381Z,64.98
2018-06-23T03:12:27.932Z,65.74
2018-06-23T03:14:20.517Z,65.64
2018-06-23T03:15:01.049Z,65.84
2018-06-23T03:15:41.581Z,66.03
2018-06-23T03:16:22.137Z,65.93
2018-06-23T03:17:02.686Z,66.03
2018-06-23T03:17:43.232Z,65.74
2018-06-23T03:18:23.781Z,65.84
2018-06-23T03:19:04.346Z,66.03
2018-06-23T03:19:44.898Z,65.84
2018-06-23T03:20:25.452Z,65.36
2018-06-23T03:21:06.016Z,65.17
2018-06-23T03:21:46.552Z,65.74
2018-06-23T03:22:27.102Z,65.84
2018-06-23T03:23:07.648Z,65.93
2018-06-23T03:23:48.202Z,66.31
2018-06-23T03:24:28.751Z,66.31
2018-06-23T03:25:09.321Z,66.31
2018-06-23T03:25:49.861Z,66.31
2018-06-23T03:26:30.435Z,65.93
2018-06-23T03:27:10.962Z,66.41
2018-06-23T03:27:51.540Z,66.13
2018-06-23T03:28:32.101Z,66.03
2018-06-23T03:29:12.658Z,66.31
2018-06-23T03:29:53.232Z,65.45
2018-06-23T03:30:33.814Z,65.17
2018-06-23T03:31:14.335Z,65.07
2018-06-23T03:31:54.891Z,65.64
2018-06-23T03:32:35.442Z,65.74
2018-06-23T03:33:16.010Z,65.84
2018-06-23T03:33:56.565Z,65.64
2018-06-23T03:34:37.104Z,65.26
2018-06-23T03:35:17.668Z,65.55
2018-06-23T03:35:58.227Z,65.17
2018-06-23T03:36:38.774Z,64.98
2018-06-23T03:37:19.323Z,65.26
2018-06-23T03:37:59.895Z,65.07
2018-06-23T03:38:40.476Z,65.07
2018-06-23T03:39:21.090Z,65.36
2018-06-23T03:40:01.657Z,65.17
2018-06-23T03:40:42.252Z,65.36
2018-06-23T03:41:22.821Z,65.26
2018-06-23T03:42:03.361Z,65.26
2018-06-23T03:42:43.932Z,65.36
2018-06-23T03:43:24.472Z,65.07
2018-06-23T03:44:05.020Z,65.45
2018-06-23T03:44:45.587Z,65.74
2018-06-23T03:45:26.137Z,65.93
2018-06-23T03:46:06.731Z,65.84
2018-06-23T03:46:47.291Z,65.64
2018-06-23T03:47:27.855Z,65.17
2018-06-23T03:48:08.453Z,65.17
2018-06-23T03:48:48.966Z,65.36
2018-06-23T03:49:29.527Z,66.03
2018-06-23T03:50:10.074Z,66.03
2018-06-23T03:50:50.648Z,65.36
2018-06-23T03:51:31.171Z,65.26
2018-06-23T03:52:11.737Z,65.26
2018-06-23T03:52:52.285Z,65.07
2018-06-23T03:53:32.827Z,65.64
2018-06-23T03:54:13.380Z,65.45
2018-06-23T03:54:53.934Z,65.07
2018-06-23T03:55:34.517Z,64.98
2018-06-23T03:56:15.081Z,64.98
2018-06-23T03:56:55.645Z,65.17
2018-06-23T03:57:36.202Z,65.17
2018-06-23T03:58:16.748Z,65.36
2018-06-23T03:58:57.321Z,65.07
2018-06-23T03:59:37.890Z,65.26
2018-06-23T04:00:18.453Z,65.45
2018-06-23T04:00:58.998Z,65.64
2018-06-23T04:01:39.599Z,65.64
2018-06-23T04:02:20.167Z,65.07
2018-06-23T04:03:00.755Z,65.17
2018-06-23T04:03:41.310Z,65.36
2018-06-23T04:04:21.851Z,65.26
2018-06-23T04:05:02.451Z,64.88
2018-06-23T04:05:43.123Z,65.36
2018-06-23T04:06:23.687Z,65.17
2018-06-23T04:07:04.247Z,65.17
2018-06-23T04:07:44.811Z,65.07
2018-06-23T04:08:25.370Z,65.17
2018-06-23T04:09:05.914Z,65.36
2018-06-23T04:09:46.478Z,65.17
2018-06-23T04:10:27.015Z,65.36
2018-06-23T04:11:07.569Z,65.64
2018-06-23T04:11:48.177Z,65.84
2018-06-23T04:12:28.747Z,66.03
2018-06-23T04:13:09.299Z,66.22
2018-06-23T04:13:49.869Z,66.41
2018-06-23T04:14:30.418Z,65.84
2018-06-23T04:15:10.958Z,65.17
2018-06-23T04:15:51.517Z,65.64
2018-06-23T04:16:32.071Z,65.93
2018-06-23T04:17:12.627Z,65.74
2018-06-23T04:17:53.176Z,65.84
2018-06-23T04:18:33.732Z,64.88
2018-06-23T04:19:14.262Z,64.69
2018-06-23T04:19:54.826Z,64.78
2018-06-23T04:20:35.412Z,65.26
2018-06-23T04:21:15.978Z,65.45
2018-06-23T04:21:56.586Z,65.17
2018-06-23T04:22:37.159Z,65.64
2018-06-23T04:23:17.685Z,65.36
2018-06-23T04:23:58.239Z,65.07
2018-06-23T04:24:38.790Z,65.36
2018-06-23T04:25:19.339Z,65.55
2018-06-23T04:25:59.900Z,65.84
2018-06-23T04:26:40.476Z,65.84
2018-06-23T04:27:21.030Z,65.64
2018-06-23T04:28:01.593Z,65.64
2018-06-23T04:28:42.157Z,65.93
2018-06-23T04:29:22.724Z,66.03
2018-06-23T04:30:03.276Z,65.93
2018-06-23T04:30:43.844Z,65.93
2018-06-23T04:31:24.390Z,66.13
2018-06-23T04:32:04.945Z,66.22
2018-06-23T04:32:45.492Z,66.22
2018-06-23T04:33:26.047Z,66.22
2018-06-23T04:34:06.596Z,66.41
2018-06-23T04:34:47.149Z,66.41
2018-06-23T04:35:27.697Z,66.79
2018-06-23T04:36:08.243Z,66.5
2018-06-23T04:36:48.808Z,66.31
2018-06-23T04:37:29.365Z,66.31
2018-06-23T04:38:09.947Z,65.84
2018-06-23T04:38:50.526Z,66.6
2018-06-23T04:39:31.090Z,66.5
2018-06-23T04:40:11.753Z,66.41
2018-06-23T04:40:52.301Z,66.79
2018-06-23T04:41:32.905Z,66.31
2018-06-23T04:42:13.484Z,65.93
2018-06-23T04:42:54.085Z,66.22
2018-06-23T04:43:34.656Z,66.31
2018-06-23T04:44:15.212Z,66.41
2018-06-23T04:44:55.777Z,66.22
2018-06-23T04:45:36.336Z,66.22
2018-06-23T04:46:16.897Z,66.41
2018-06-23T04:46:57.454Z,66.79
2018-06-23T04:47:38.015Z,66.7
2018-06-23T04:48:18.568Z,66.89
2018-06-23T04:48:59.127Z,67.08
2018-06-23T04:49:39.695Z,66.99
2018-06-23T04:50:20.244Z,67.18
2018-06-23T04:51:00.787Z,66.89
2018-06-23T04:51:41.359Z,67.18
2018-06-23T04:52:21.935Z,66.89
2018-06-23T04:53:02.522Z,67.08
2018-06-23T04:53:43.090Z,66.6
2018-06-23T04:54:23.628Z,66.89
2018-06-23T04:55:04.198Z,66.6
2018-06-23T04:55:44.734Z,66.7
2018-06-23T04:56:25.285Z,66.31
2018-06-23T04:57:05.831Z,67.08
2018-06-23T04:57:46.387Z,67.27
2018-06-23T04:58:26.922Z,66.5
2018-06-23T04:59:07.473Z,66.5
2018-06-23T04:59:48.377Z,66.41
2018-06-23T05:00:29.310Z,66.5
2018-06-23T05:01:09.728Z,66.5
2018-06-23T05:01:50.269Z,66.41
2018-06-23T05:02:30.823Z,66.5
2018-06-23T05:03:11.379Z,66.6
2018-06-23T05:03:51.968Z,66.7
2018-06-23T05:04:32.497Z,66.99
2018-06-23T05:05:13.054Z,67.18
2018-06-23T05:05:53.718Z,67.18
2018-06-23T05:06:34.363Z,67.46
2018-06-23T05:07:14.958Z,67.27
2018-06-23T05:07:55.553Z,67.55
2018-06-23T05:08:36.120Z,67.75
2018-06-23T05:09:16.684Z,67.55
2018-06-23T05:09:57.212Z,66.99
2018-06-23T05:10:37.789Z,67.36
2018-06-23T05:11:18.392Z,67.55
2018-06-23T05:11:58.951Z,67.36
2018-06-23T05:12:39.645Z,67.18
2018-06-23T05:13:20.166Z,66.99
2018-06-23T05:14:00.901Z,67.08
2018-06-23T05:14:41.545Z,67.08
2018-06-23T05:15:22.202Z,66.99
2018-06-23T05:16:02.794Z,66.7
2018-06-23T05:16:43.413Z,67.36
2018-06-23T05:17:24.003Z,67.08
2018-06-23T05:18:04.580Z,67.36
2018-06-23T05:18:45.120Z,67.36
2018-06-23T05:19:25.709Z,67.18
2018-06-23T05:20:06.363Z,66.92
2018-06-23T05:20:46.882Z,66.54
2018-06-23T05:21:27.468Z,66.54
2018-06-23T05:22:08.009Z,66.63
2018-06-23T05:22:48.559Z,67.21
2018-06-23T05:23:29.119Z,66.63
2018-06-23T05:24:09.674Z,66.44
2018-06-23T05:24:50.226Z,66.83
2018-06-23T05:25:30.908Z,66.54
2018-06-23T05:26:11.499Z,66.99
2018-06-23T05:26:52.048Z,66.79
2018-06-23T05:27:32.661Z,67.18
2018-06-23T05:28:13.240Z,67.36
2018-06-23T05:28:53.770Z,67.4
2018-06-23T05:29:35.182Z,67.78
2018-06-23T05:30:15.720Z,67.21
2018-06-23T05:30:56.269Z,67.21
2018-06-23T05:31:36.852Z,66.89
2018-06-23T05:32:17.443Z,67.36
2018-06-23T05:32:58.001Z,67.27
2018-06-23T05:33:38.741Z,67.36
2018-06-23T05:34:19.293Z,68.16
2018-06-23T05:34:59.834Z,67.78
2018-06-23T05:35:40.410Z,67.78
2018-06-23T05:36:20.965Z,67.69
2018-06-23T05:37:01.650Z,67.69
2018-06-23T05:37:42.280Z,66.63
2018-06-23T05:38:25.226Z,66.83
2018-06-23T05:39:06.970Z,66.44
2018-06-23T05:39:47.701Z,66.54
2018-06-23T05:40:28.239Z,66.16
2018-06-23T05:41:08.819Z,66.44
2018-06-23T05:41:49.656Z,67.59
2018-06-23T05:42:31.330Z,67.21
2018-06-23T05:43:12.736Z,67.02
2018-06-23T05:43:53.801Z,66.54
2018-06-23T05:44:35.831Z,65.97
2018-06-23T05:45:17.534Z,65.87
2018-06-23T05:45:58.841Z,65.71
2018-06-23T05:46:39.950Z,66.09
2018-06-23T05:47:20.930Z,65.04
2018-06-23T05:48:02.547Z,65.14
2018-06-23T05:48:43.671Z,66
2018-06-23T05:49:24.148Z,65.61
2018-06-23T05:50:04.822Z,65.23
2018-06-23T05:50:45.864Z,65.42
2018-06-23T05:51:28.409Z,65.04
2018-06-23T05:52:09.111Z,65.42
2018-06-23T05:52:49.973Z,65.14
2018-06-23T05:53:30.964Z,64.85
2018-06-23T05:54:11.865Z,66
2018-06-23T05:54:52.554Z,65.14
2018-06-23T05:55:35.155Z,65.52
2018-06-23T05:56:14.040Z,64.75
2018-06-23T05:56:55.293Z,64.95
2018-06-23T05:57:35.990Z,64.66
2018-06-23T05:58:16.865Z,64.85
2018-06-23T05:58:57.478Z,64.56
2018-06-23T05:59:38.168Z,64.95
2018-06-23T06:00:18.744Z,65.23
2018-06-23T06:00:59.753Z,65.42
2018-06-23T06:01:40.475Z,65.9
2018-06-23T06:02:21.186Z,66
2018-06-23T06:03:01.921Z,66
2018-06-23T06:03:42.612Z,65.52
2018-06-23T06:04:23.577Z,65.61
2018-06-23T06:05:05.485Z,66
2018-06-23T06:05:45.243Z,65.61
2018-06-23T06:06:25.760Z,64.95
2018-06-23T06:07:06.388Z,64.37
2018-06-23T06:07:46.887Z,64.85
2018-06-23T06:08:28.044Z,64.95
2018-06-23T06:09:08.590Z,64.85
2018-06-23T06:09:49.122Z,65.14
2018-06-23T06:10:29.700Z,65.71
2018-06-23T06:11:10.237Z,65.81
2018-06-23T06:11:50.780Z,65.52
2018-06-23T06:12:31.404Z,65.61
2018-06-23T06:13:11.996Z,65.77
2018-06-23T06:13:52.549Z,66.19
2018-06-23T06:14:33.096Z,66.16
2018-06-23T06:15:13.691Z,66.67
2018-06-23T06:15:54.269Z,66.35
2018-06-23T06:16:34.818Z,66.54
2018-06-23T06:17:15.384Z,66.63
2018-06-23T06:17:55.909Z,65.87
2018-06-23T06:18:36.458Z,66.44
2018-06-23T06:19:17.004Z,66.54
2018-06-23T06:19:57.560Z,66.63
2018-06-23T06:20:38.117Z,66.63
2018-06-23T06:21:18.684Z,66.92
2018-06-23T06:21:59.238Z,66.44
2018-06-23T06:22:39.789Z,67.02
2018-06-23T06:23:20.363Z,66.83
2018-06-23T06:24:00.940Z,66.83
2018-06-23T06:24:41.816Z,67.4
2018-06-23T06:25:22.349Z,67.4
2018-06-23T06:26:02.929Z,67.21
2018-06-23T06:26:43.490Z,66.92
2018-06-23T06:27:24.053Z,67.3
2018-06-23T06:28:04.602Z,67.3
2018-06-23T06:28:45.178Z,67.78
2018-06-23T06:29:25.776Z,67.59
2018-06-23T06:30:06.315Z,67.97
2018-06-23T06:30:46.857Z,68.26
2018-06-23T06:31:27.414Z,68.07
2018-06-23T06:32:07.977Z,67.49
2018-06-23T06:32:48.524Z,67.53
2018-06-23T06:33:29.078Z,67.72
2018-06-23T06:34:09.657Z,67.43
2018-06-23T06:34:50.225Z,67.82
2018-06-23T06:35:30.796Z,67.43
2018-06-23T06:36:11.339Z,67.43
2018-06-23T06:36:51.914Z,67.43
2018-06-23T06:37:32.456Z,67.43
2018-06-23T06:38:13.008Z,67.53
2018-06-23T06:38:53.804Z,67.43
2018-06-23T06:39:34.673Z,67.43
2018-06-23T06:40:15.242Z,67.53
2018-06-23T06:40:55.814Z,67.53
2018-06-23T06:41:36.373Z,67.53
2018-06-23T06:42:16.933Z,67.82
2018-06-23T06:42:57.515Z,67.91
2018-06-23T06:43:38.087Z,68.29
2018-06-23T06:44:18.645Z,68.01
2018-06-23T06:44:59.219Z,67.97
2018-06-23T06:45:39.805Z,67.91
2018-06-23T06:46:20.375Z,68.26
2018-06-23T06:47:00.947Z,68.64
2018-06-23T06:47:41.541Z,69.12
2018-06-23T06:48:22.169Z,69.41
2018-06-23T06:49:02.738Z,69.31
2018-06-23T06:49:43.299Z,70.27
2018-06-23T06:50:23.849Z,70.36
2018-06-23T06:51:04.394Z,70.27
2018-06-23T06:51:44.947Z,71.32
2018-06-23T06:52:25.526Z,71.32
2018-06-23T06:53:07.240Z,71.7
2018-06-23T06:53:47.963Z,72.37
2018-06-23T06:54:28.654Z,72.66
2018-06-23T06:55:09.526Z,72.75
2018-06-23T06:55:50.084Z,73.33
2018-06-23T06:56:31.107Z,73.71
2018-06-23T06:57:11.852Z,74.09
2018-06-23T06:57:52.887Z,74.28
2018-06-23T06:58:33.668Z,74.28
2018-06-23T06:59:14.235Z,74.09
2018-06-23T06:59:54.808Z,74.76
2018-06-23T07:00:35.377Z,75.14
2018-06-23T07:01:15.969Z,75.43
2018-06-23T07:01:56.558Z,76.1
2018-06-23T07:02:37.129Z,76.39
2018-06-23T07:03:17.778Z,76.29
2018-06-23T07:03:58.641Z,76.57
2018-06-23T07:04:39.666Z,76.77
2018-06-23T07:05:20.226Z,77.15
2018-06-23T07:06:00.785Z,76.86
2018-06-23T07:06:41.388Z,76.96
2018-06-23T07:07:21.945Z,77.53
2018-06-23T07:08:02.506Z,77.92
2018-06-23T07:08:43.069Z,78.2
2018-06-23T07:09:23.626Z,78.39
2018-06-23T07:10:04.188Z,79.06
2018-06-23T07:10:44.740Z,79.06
2018-06-23T07:11:25.308Z,79.44
2018-06-23T07:12:05.865Z,79.35
2018-06-23T07:12:46.516Z,79.35
2018-06-23T07:13:27.120Z,79.44
2018-06-23T07:14:07.979Z,79.83
2018-06-23T07:14:49.043Z,79.64
2018-06-23T07:15:29.906Z,79.73
2018-06-23T07:16:10.543Z,79.35
2018-06-23T07:16:51.101Z,79.44
2018-06-23T07:17:31.708Z,79.93
2018-06-23T07:18:12.233Z,80.69
2018-06-23T07:18:52.795Z,80.98
2018-06-23T07:19:33.527Z,80.79
2018-06-23T07:20:14.097Z,80.88
2018-06-23T07:20:54.656Z,80.69
2018-06-23T07:21:35.227Z,80.69
2018-06-23T07:22:15.807Z,81.16
2018-06-23T07:22:56.395Z,80.88
2018-06-23T07:23:37.047Z,80.5
2018-06-23T07:24:17.512Z,81.4
2018-06-23T07:24:58.084Z,81.11
2018-06-23T07:25:38.647Z,81.4
2018-06-23T07:26:19.234Z,81.21
2018-06-23T07:26:59.859Z,80.73
2018-06-23T07:27:40.355Z,81.02
2018-06-23T07:28:20.918Z,80.82
2018-06-23T07:29:01.485Z,80.92
2018-06-23T07:29:42.054Z,80.73
2018-06-23T07:30:22.628Z,80.92
2018-06-23T07:31:03.208Z,80.77
2018-06-23T07:31:43.764Z,80.25
2018-06-23T07:32:24.326Z,79.87
2018-06-23T07:33:04.927Z,79.49
2018-06-23T07:33:45.483Z,79.49
2018-06-23T07:34:26.181Z,79.29
2018-06-23T07:35:06.677Z,79.77
2018-06-23T07:35:47.195Z,79.77
2018-06-23T07:36:27.750Z,80.06
2018-06-23T07:37:08.329Z,79.77
2018-06-23T07:37:48.894Z,79.58
2018-06-23T07:38:29.452Z,79.29
2018-06-23T07:39:10.011Z,79.1
2018-06-23T07:39:50.575Z,79.1
2018-06-23T07:40:31.224Z,79.39
2018-06-23T07:41:11.779Z,79.29
2018-06-23T07:41:52.374Z,79.77
2018-06-23T07:42:33.008Z,79.68
2018-06-23T07:43:13.612Z,79.68
2018-06-23T07:43:54.179Z,80.16
2018-06-23T07:44:34.734Z,80.25
2018-06-23T07:45:15.301Z,80.06
2018-06-23T07:45:55.859Z,81.21
2018-06-23T07:46:36.435Z,81.25
2018-06-23T07:47:16.981Z,80.96
2018-06-23T07:47:57.558Z,80.96
2018-06-23T07:48:38.142Z,80.19
2018-06-23T07:49:18.696Z,79.81
2018-06-23T07:49:59.270Z,79.62
2018-06-23T07:50:39.909Z,79.52
2018-06-23T07:51:20.424Z,79.33
2018-06-23T07:52:00.994Z,79.75
2018-06-23T07:52:41.548Z,79.85
2018-06-23T07:53:22.098Z,79.47
2018-06-23T07:54:02.645Z,79.57
2018-06-23T07:54:43.221Z,79.37
2018-06-23T07:55:23.773Z,78.99
2018-06-23T07:56:04.390Z,78.22
2018-06-23T07:56:44.889Z,76.64
2018-06-23T07:57:25.492Z,76.31
2018-06-23T07:58:06.051Z,76.82
2018-06-23T07:58:46.607Z,76.69
2018-06-23T07:59:27.155Z,76.35
2018-06-23T08:00:07.712Z,76.12
2018-06-23T08:00:48.284Z,76.35
2018-06-23T08:01:28.913Z,76.15
2018-06-23T08:02:09.410Z,76.4
2018-06-23T08:02:49.953Z,76.5
2018-06-23T08:03:30.537Z,76.82
2018-06-23T08:04:11.108Z,76.54
2018-06-23T08:04:51.676Z,76.31
2018-06-23T08:05:32.254Z,75.48
2018-06-23T08:06:12.838Z,75.73
2018-06-23T08:06:53.432Z,75.93
2018-06-23T08:07:34.002Z,76.15
2018-06-23T08:08:14.566Z,76.25
2018-06-23T08:08:55.133Z,76.64
2018-06-23T08:09:35.707Z,75.26
2018-06-23T08:10:16.267Z,75.29
2018-06-23T08:10:56.825Z,74.2
2018-06-23T08:11:37.475Z,74.4
2018-06-23T08:12:18.091Z,74.77
2018-06-23T08:12:58.655Z,74.11
2018-06-23T08:13:39.261Z,74.3
2018-06-23T08:14:19.787Z,74.01
2018-06-23T08:15:00.339Z,74.49
2018-06-23T08:15:40.879Z,74.58
2018-06-23T08:16:21.485Z,74.11
2018-06-23T08:17:02.048Z,73.82
2018-06-23T08:17:42.645Z,73.72
2018-06-23T08:18:23.180Z,73.72
2018-06-23T08:19:03.749Z,74.3
2018-06-23T08:19:44.278Z,74.4
2018-06-23T08:20:24.838Z,74.87
2018-06-23T08:21:05.390Z,74.93
2018-06-23T08:21:45.927Z,75.26
2018-06-23T08:22:26.499Z,75.07
2018-06-23T08:23:07.033Z,74.93
2018-06-23T08:23:47.602Z,75.41
2018-06-23T08:24:28.159Z,75.51
2018-06-23T08:25:08.701Z,75.31
2018-06-23T08:25:49.272Z,75.79
2018-06-23T08:26:29.859Z,76.37
2018-06-23T08:27:10.477Z,76.08
2018-06-23T08:27:50.991Z,75.89
2018-06-23T08:28:31.565Z,76.37
2018-06-23T08:29:12.103Z,76.27
2018-06-23T08:29:52.651Z,76.65
2018-06-23T08:30:33.217Z,76.46
2018-06-23T08:31:13.776Z,77.04
2018-06-23T08:31:54.349Z,77.04
2018-06-23T08:32:34.913Z,76.84
2018-06-23T08:33:15.484Z,76.84
2018-06-23T08:33:56.036Z,76.94
2018-06-23T08:34:36.620Z,76.46
2018-06-23T08:35:17.201Z,76.08
2018-06-23T08:35:57.766Z,75.98
2018-06-23T08:36:38.328Z,76.18
2018-06-23T08:37:18.945Z,75.89
2018-06-23T08:37:59.506Z,76.46
2018-06-23T08:38:40.256Z,76.37
2018-06-23T08:39:20.822Z,76.37
2018-06-23T08:40:01.402Z,76.37
2018-06-23T08:40:41.962Z,76.37
2018-06-23T08:41:22.545Z,76.27
2018-06-23T08:42:03.142Z,75.98
2018-06-23T08:42:43.702Z,76.18
2018-06-23T08:43:24.259Z,76.18
2018-06-23T08:44:04.837Z,76.18
2018-06-23T08:44:45.392Z,76.65
2018-06-23T08:45:25.970Z,76.94
2018-06-23T08:46:06.547Z,76.94